This is the latest recevied weather packets stored in our database for station/object KC3HIX. If no packets are shown the sender has not sent any weather packets the latest 10 day(s).
| Time | Temp. | Humidity | Pressure | Rain* | Wind** | Luminosity | Snow |
|---|---|---|---|---|---|---|---|
| 1778127305 | 11.11° C | 87% | 1011.7 hPa | 0 mm | - | - | - |
| 1778126705 | 11.11° C | 87% | 1011.7 hPa | 0 mm | - | - | - |
| 1778124005 | 11.11° C | 87% | 1011.3 hPa | 0 mm | - | - | - |
| 1778122805 | 11.11° C | 84% | 1011.3 hPa | 0 mm | - | - | - |
| 1778120105 | 12.22° C | 81% | 1011 hPa | 0 mm | - | - | - |
| 1778119805 | 12.22° C | 80% | 1011.3 hPa | 0 mm | - | - | - |
| 1778116805 | 12.22° C | 80% | 1011.7 hPa | 0 mm | - | - | - |
| 1778109604 | 13.89° C | 80% | 1009.6 hPa | 0 mm | - | - | - |
| 1778106904 | 15.56° C | 80% | 1008.9 hPa | 0 mm | - | - | - |
| 1778106304 | 16.11° C | 80% | 1008.6 hPa | 0 mm | - | - | - |
| 1778105704 | 17.22° C | 76% | 1008.2 hPa | 0 mm | - | - | - |
| 1778104504 | 18.33° C | 81% | 1007.5 hPa | 0 mm | - | - | - |
| 1778101803 | 21.11° C | 75% | 1006.8 hPa | 0 mm | - | - | - |
| 1778101204 | 21.11° C | 75% | 1006.5 hPa | 0 mm | - | - | - |
| 1778100903 | 21.11° C | 75% | 1006.5 hPa | 0 mm | - | - | - |
| 1778098204 | 20.56° C | 79% | 1006.5 hPa | 0 mm | - | - | - |
| 1778097303 | 21.11° C | 78% | 1006.5 hPa | 0 mm | - | - | - |
| 1778087406 | 17.22° C | 92% | 1006.8 hPa | 0.51 mm | - | - | - |
| 1778083806 | 16.67° C | 89% | 1007.2 hPa | 0 mm | - | - | - |
| 1778083206 | 17.22° C | 89% | 1007.2 hPa | 0.25 mm | - | - | - |
| 1778081706 | 17.22° C | 88% | 1007.2 hPa | 0.76 mm | - | - | - |
| 1778078106 | 16.67° C | 91% | 1007.2 hPa | 1.78 mm | - | - | - |
| 1778077827 | 16.67° C | 90% | 1006.8 hPa | 2.03 mm | - | - | - |
| 1778076606 | 16.67° C | 91% | 1007.2 hPa | 1.78 mm | - | - | - |
| 1778070905 | 16.11° C | 86% | 1007.5 hPa | 1.78 mm | - | - | - |
* Rain latest hour (hover to see other rain measurements)
** Current wind speed in m/s (hover to see current wind gust speed)